createdAt,value
2022-09-12T00:01:10.356Z,25.77
2022-09-12T00:03:39.745Z,24.13
2022-09-12T00:06:12.952Z,26.02
2022-09-12T00:08:41.212Z,25.92
2022-09-12T00:11:13.370Z,25.73
2022-09-12T00:13:43.163Z,25.90
2022-09-12T00:16:18.619Z,24.13
2022-09-12T00:18:47.680Z,24.77
2022-09-12T00:21:16.686Z,24.42
2022-09-12T00:23:45.198Z,24.88
2022-09-12T00:26:15.646Z,24.15
2022-09-12T00:28:44.093Z,23.83
2022-09-12T00:31:15.108Z,25.10
2022-09-12T00:33:43.683Z,24.63
2022-09-12T00:36:16.222Z,23.27
2022-09-12T00:38:44.977Z,24.25
2022-09-12T00:41:18.574Z,25.55
2022-09-12T00:43:49.515Z,25.15
2022-09-12T00:46:29.030Z,25.23
2022-09-12T00:49:01.310Z,25.88
2022-09-12T00:51:32.555Z,26.75
2022-09-12T00:54:04.031Z,26.83
2022-09-12T00:56:34.095Z,27.00
2022-09-12T00:59:05.577Z,24.58
2022-09-12T01:01:34.846Z,25.27
2022-09-12T01:04:03.873Z,29.10
2022-09-12T01:06:38.008Z,25.40
2022-09-12T01:09:06.837Z,24.88
2022-09-12T01:11:39.772Z,24.98
2022-09-12T01:14:08.845Z,26.17
2022-09-12T01:16:38.574Z,26.02
2022-09-12T01:19:26.381Z,26.08
2022-09-12T01:22:12.453Z,25.73
2022-09-12T01:25:02.204Z,26.85
2022-09-12T01:27:43.107Z,28.60
2022-09-12T01:30:29.726Z,26.15
2022-09-12T01:33:45.018Z,27.63
2022-09-12T01:36:35.752Z,26.65
2022-09-12T01:39:07.257Z,28.65
2022-09-12T01:41:45.435Z,29.02
2022-09-12T01:44:20.958Z,26.27
2022-09-12T01:46:57.190Z,27.48
2022-09-12T01:49:29.774Z,27.88
2022-09-12T01:52:01.331Z,30.08
2022-09-12T01:54:37.835Z,27.73
2022-09-12T01:57:14.817Z,27.80
2022-09-12T01:59:46.620Z,26.75
2022-09-12T02:02:20.207Z,30.00
2022-09-12T02:04:55.776Z,30.00
2022-09-12T02:07:32.095Z,28.25
2022-09-12T02:10:07.193Z,29.77
2022-09-12T02:12:43.609Z,32.03
2022-09-12T02:15:16.317Z,28.73
2022-09-12T02:17:50.587Z,29.50
2022-09-12T02:20:44.353Z,30.23
2022-09-12T02:23:20.554Z,27.50
2022-09-12T02:25:52.135Z,28.67
2022-09-12T02:28:24.311Z,27.15
2022-09-12T02:31:03.753Z,27.65
2022-09-12T02:33:45.173Z,25.83
2022-09-12T02:36:24.014Z,25.50
2022-09-12T02:38:52.647Z,25.42
2022-09-12T02:41:22.504Z,26.65
2022-09-12T02:43:52.538Z,28.40
2022-09-12T02:46:27.158Z,28.30
2022-09-12T02:48:58.189Z,25.17
2022-09-12T02:51:27.878Z,27.20
2022-09-12T02:53:59.906Z,28.38
2022-09-12T02:56:31.276Z,28.60
2022-09-12T02:59:05.823Z,26.75
2022-09-12T03:02:02.021Z,28.08
2022-09-12T03:04:47.931Z,26.75
2022-09-12T03:07:26.536Z,26.92
2022-09-12T03:12:40.242Z,27.90
2022-09-12T03:15:20.590Z,28.88
2022-09-12T03:18:02.969Z,27.00
2022-09-12T03:20:45.691Z,26.55
2022-09-12T03:23:26.591Z,29.65
2022-09-12T03:26:00.135Z,27.20
2022-09-12T03:28:29.376Z,28.58
2022-09-12T03:30:59.559Z,28.67
2022-09-12T03:33:27.953Z,26.85
2022-09-12T03:35:57.949Z,28.42
2022-09-12T03:38:25.993Z,27.92
2022-09-12T03:40:56.694Z,27.63
2022-09-12T03:43:26.550Z,26.83
2022-09-12T03:45:56.341Z,25.10
2022-09-12T03:48:26.699Z,27.98
2022-09-12T03:50:55.555Z,25.88
2022-09-12T03:53:25.347Z,27.38
2022-09-12T03:55:53.596Z,26.35
2022-09-12T03:58:21.759Z,25.77
2022-09-12T04:00:52.806Z,24.90
2022-09-12T04:03:58.091Z,25.23
2022-09-12T04:06:26.705Z,23.95
2022-09-12T04:08:56.257Z,25.05
2022-09-12T04:11:24.727Z,26.77
2022-09-12T04:13:53.079Z,23.67
2022-09-12T04:16:21.865Z,24.40
2022-09-12T04:18:50.171Z,24.13
2022-09-12T04:21:21.812Z,24.75
2022-09-12T04:23:53.564Z,25.52
2022-09-12T04:26:25.694Z,24.70
2022-09-12T04:28:56.159Z,23.17
2022-09-12T04:31:25.430Z,22.77
2022-09-12T04:33:57.249Z,24.67
2022-09-12T04:36:26.603Z,26.05
2022-09-12T04:38:55.555Z,25.83
2022-09-12T04:41:26.602Z,26.85
2022-09-12T04:43:58.490Z,24.17
2022-09-12T04:46:27.379Z,25.30
2022-09-12T04:48:56.994Z,25.13
2022-09-12T04:51:28.211Z,25.15
2022-09-12T04:53:58.190Z,24.13
2022-09-12T04:56:29.531Z,26.20
2022-09-12T04:58:59.322Z,27.48
2022-09-12T05:01:29.991Z,24.85
2022-09-12T05:03:59.981Z,23.23
2022-09-12T05:06:30.089Z,25.00
2022-09-12T05:09:01.355Z,22.77
2022-09-12T05:12:03.196Z,22.15
2022-09-12T05:14:23.880Z,23.88
2022-09-12T05:16:52.166Z,22.48
2022-09-12T05:19:20.425Z,22.73
2022-09-12T05:21:48.729Z,23.52
2022-09-12T05:24:17.152Z,23.98
2022-09-12T05:26:46.686Z,22.30
2022-09-12T05:29:15.220Z,21.95
2022-09-12T05:31:43.547Z,21.20
2022-09-12T05:34:12.711Z,21.60
2022-09-12T05:36:40.732Z,21.45
2022-09-12T05:41:37.301Z,20.08
2022-09-12T05:44:08.670Z,18.73
2022-09-12T05:46:39.100Z,19.33
2022-09-12T05:49:09.032Z,18.90
2022-09-12T05:51:39.275Z,18.42
2022-09-12T05:54:09.256Z,18.33
2022-09-12T05:56:40.165Z,18.65
2022-09-12T05:59:13.692Z,17.75
2022-09-12T06:01:42.777Z,16.70
2022-09-12T06:04:11.169Z,16.25
2022-09-12T06:06:43.341Z,17.10
2022-09-12T06:09:13.120Z,15.60
2022-09-12T06:11:48.680Z,16.25
2022-09-12T06:14:20.138Z,16.05
2022-09-12T06:16:49.903Z,15.27
2022-09-12T06:19:19.965Z,14.05
2022-09-12T06:21:49.406Z,14.43
2022-09-12T06:24:19.125Z,13.02
2022-09-12T06:26:48.034Z,12.95
2022-09-12T06:29:19.235Z,12.60
2022-09-12T06:31:50.166Z,13.48
2022-09-12T06:34:19.532Z,12.00
2022-09-12T06:36:49.466Z,11.93
2022-09-12T06:39:19.382Z,11.27
2022-09-12T06:41:48.365Z,11.52
2022-09-12T06:44:19.284Z,11.18
2022-09-12T06:46:48.009Z,11.68
2022-09-12T06:49:17.537Z,12.18
2022-09-12T06:51:45.840Z,11.77
2022-09-12T06:54:15.330Z,11.52
2022-09-12T06:56:43.839Z,12.32
2022-09-12T06:59:12.256Z,11.32
2022-09-12T07:01:42.226Z,12.38
2022-09-12T07:04:10.573Z,11.10
2022-09-12T07:06:40.551Z,10.77
2022-09-12T07:09:12.021Z,10.95
2022-09-12T07:11:42.123Z,11.18
2022-09-12T07:14:13.837Z,10.75
2022-09-12T07:16:43.784Z,15.10
2022-09-12T07:19:12.556Z,12.95
2022-09-12T07:21:41.505Z,9.93
2022-09-12T07:24:10.819Z,8.50
2022-09-12T07:26:41.914Z,9.13
2022-09-12T07:32:05.839Z,10.50
2022-09-12T07:34:34.532Z,8.90
2022-09-12T07:37:02.637Z,9.70
2022-09-12T07:39:30.630Z,10.60
2022-09-12T07:41:58.654Z,10.40
2022-09-12T07:44:27.286Z,10.45
2022-09-12T07:46:55.371Z,11.40
2022-09-12T07:49:25.061Z,11.48
2022-09-12T07:51:53.211Z,10.80
2022-09-12T07:54:21.570Z,11.30
2022-09-12T07:56:49.820Z,12.13
2022-09-12T07:59:35.353Z,11.20
2022-09-12T08:02:06.371Z,12.30
2022-09-12T08:04:36.410Z,10.85
2022-09-12T08:07:04.523Z,12.05
2022-09-12T08:09:32.506Z,13.07
2022-09-12T08:12:00.567Z,11.95
2022-09-12T08:14:29.675Z,12.18
2022-09-12T08:16:57.741Z,11.70
2022-09-12T08:19:25.794Z,11.68
2022-09-12T08:21:55.212Z,14.20
2022-09-12T08:24:23.420Z,15.27
2022-09-12T08:26:51.628Z,11.82
2022-09-12T08:29:19.801Z,11.98
2022-09-12T08:31:48.480Z,12.02
2022-09-12T08:34:19.162Z,13.77
2022-09-12T08:36:47.272Z,11.57
2022-09-12T08:39:16.902Z,12.90
2022-09-12T08:41:46.595Z,10.20
2022-09-12T08:44:31.613Z,11.73
2022-09-12T08:47:18.614Z,10.90
2022-09-12T08:49:56.370Z,11.57
2022-09-12T08:52:28.664Z,11.38
2022-09-12T08:54:58.482Z,11.48
2022-09-12T08:57:26.671Z,10.52
2022-09-12T08:59:55.079Z,11.20
2022-09-12T09:03:02.855Z,10.57
2022-09-12T09:05:47.158Z,10.30
2022-09-12T09:08:27.312Z,11.50
2022-09-12T09:11:03.798Z,10.48
2022-09-12T09:14:05.391Z,10.85
2022-09-12T09:16:37.772Z,10.25
2022-09-12T09:19:12.981Z,9.95
2022-09-12T09:21:46.500Z,10.32
2022-09-12T09:24:18.946Z,9.57
2022-09-12T09:26:54.630Z,9.77
2022-09-12T09:29:28.067Z,9.02
2022-09-12T09:31:59.439Z,9.32
2022-09-12T09:34:31.585Z,9.93
2022-09-12T09:37:08.290Z,8.73
2022-09-12T09:39:47.964Z,9.27
2022-09-12T09:42:27.666Z,9.10
2022-09-12T09:45:00.213Z,9.20
2022-09-12T09:47:29.304Z,8.13
2022-09-12T09:49:58.034Z,8.02
2022-09-12T09:52:33.034Z,7.72
2022-09-12T09:55:02.764Z,8.73
2022-09-12T09:57:44.610Z,8.30
2022-09-12T10:00:30.502Z,8.57
2022-09-12T10:03:04.656Z,9.55
2022-09-12T10:05:37.203Z,7.50
2022-09-12T10:08:08.177Z,7.50
2022-09-12T10:10:36.770Z,6.82
2022-09-12T10:13:21.327Z,5.95
2022-09-12T10:15:59.196Z,6.47
2022-09-12T10:18:51.025Z,5.88
2022-09-12T10:21:29.558Z,6.15
2022-09-12T10:24:07.076Z,4.90
2022-09-12T10:29:18.062Z,4.57
2022-09-12T10:31:52.282Z,4.05
2022-09-12T10:34:25.318Z,3.83
2022-09-12T10:36:59.513Z,4.10
2022-09-12T10:39:28.282Z,3.90
2022-09-12T10:41:56.416Z,3.70
2022-09-12T10:44:31.656Z,4.00
2022-09-12T10:47:01.976Z,3.83
2022-09-12T10:49:37.966Z,3.63
2022-09-12T10:52:19.006Z,3.03
2022-09-12T10:54:47.206Z,3.28
2022-09-12T10:57:37.770Z,3.30
2022-09-12T11:00:16.752Z,3.30
2022-09-12T11:03:03.718Z,2.83
2022-09-12T11:05:43.635Z,3.03
2022-09-12T11:08:27.556Z,3.30
2022-09-12T11:11:04.650Z,2.42
2022-09-12T11:13:50.992Z,2.70
2022-09-12T11:16:28.386Z,2.38
2022-09-12T11:21:53.903Z,2.22
2022-09-12T11:24:38.218Z,2.70
2022-09-12T11:27:20.527Z,2.65
2022-09-12T11:29:56.853Z,2.47
2022-09-12T11:32:41.775Z,2.20
2022-09-12T11:35:19.026Z,2.40
2022-09-12T11:40:31.878Z,2.20
2022-09-12T11:43:04.698Z,2.30
2022-09-12T11:45:40.472Z,2.00
2022-09-12T11:48:19.491Z,2.17
2022-09-12T11:50:47.849Z,2.30
2022-09-12T11:53:20.421Z,1.92
2022-09-12T11:55:56.004Z,2.10
2022-09-12T11:58:27.221Z,2.47
2022-09-12T12:00:59.754Z,2.20
2022-09-12T12:03:34.144Z,2.00
2022-09-12T12:06:05.752Z,2.20
2022-09-12T12:08:39.704Z,2.17
2022-09-12T12:11:09.046Z,2.10
2022-09-12T12:13:40.810Z,1.60
2022-09-12T12:16:15.042Z,2.20
2022-09-12T12:18:45.419Z,2.00
2022-09-12T12:21:39.405Z,2.30
2022-09-12T12:24:17.087Z,1.90
2022-09-12T12:26:57.325Z,2.15
2022-09-12T12:29:44.300Z,1.88
2022-09-12T12:32:26.289Z,1.97
2022-09-12T12:35:37.023Z,2.00
2022-09-12T12:38:27.135Z,2.17
2022-09-12T12:40:55.790Z,2.22
2022-09-12T12:43:32.145Z,1.83
2022-09-12T12:46:09.453Z,1.85
2022-09-12T12:49:10.683Z,2.05
2022-09-12T12:51:44.337Z,1.80
2022-09-12T12:54:33.037Z,1.80
2022-09-12T12:57:16.075Z,2.03
2022-09-12T12:59:50.034Z,1.92
2022-09-12T13:02:30.257Z,1.83
2022-09-12T13:05:01.186Z,1.85
2022-09-12T13:07:34.297Z,3.63
2022-09-12T13:10:07.282Z,2.50
2022-09-12T13:12:38.989Z,3.75
2022-09-12T13:15:40.986Z,1.95
2022-09-12T13:18:14.660Z,2.15
2022-09-12T13:20:51.133Z,2.58
2022-09-12T13:23:25.254Z,1.90
2022-09-12T13:25:56.749Z,2.35
2022-09-12T13:28:26.303Z,2.28
2022-09-12T13:31:02.955Z,2.17
2022-09-12T13:33:38.981Z,1.98
2022-09-12T13:36:41.720Z,2.00
2022-09-12T13:39:16.537Z,2.30
2022-09-12T13:42:03.741Z,1.90
2022-09-12T13:44:38.354Z,2.20
2022-09-12T13:47:06.810Z,2.20
2022-09-12T13:49:40.553Z,2.10
2022-09-12T13:52:10.989Z,2.33
2022-09-12T13:54:40.069Z,2.08
2022-09-12T13:57:28.917Z,2.13
2022-09-12T13:59:58.496Z,2.20
2022-09-12T14:02:29.102Z,1.95
2022-09-12T14:05:10.314Z,1.88
2022-09-12T14:07:55.041Z,2.92
2022-09-12T14:10:30.140Z,2.45
2022-09-12T14:13:01.550Z,2.10
2022-09-12T14:15:33.304Z,2.70
2022-09-12T14:18:03.598Z,2.15
2022-09-12T14:20:33.495Z,1.92
2022-09-12T14:23:05.329Z,2.20
2022-09-12T14:25:38.528Z,2.17
2022-09-12T14:28:14.589Z,1.80
2022-09-12T14:30:42.886Z,2.20
2022-09-12T14:33:21.938Z,2.00
2022-09-12T14:35:52.482Z,1.90
2022-09-12T14:38:25.886Z,2.17
2022-09-12T14:41:02.093Z,1.80
2022-09-12T14:43:33.746Z,1.70
2022-09-12T14:46:07.340Z,1.63
2022-09-12T14:48:39.183Z,1.50
2022-09-12T14:51:07.861Z,1.80
2022-09-12T14:53:38.151Z,1.80
2022-09-12T14:56:11.762Z,1.73
2022-09-12T14:58:42.845Z,1.60
2022-09-12T15:01:28.795Z,2.00
2022-09-12T15:03:59.704Z,2.42
2022-09-12T15:06:32.741Z,1.92
2022-09-12T15:09:08.094Z,2.05
2022-09-12T15:11:42.231Z,1.63
2022-09-12T15:14:14.135Z,2.08
2022-09-12T15:16:42.758Z,1.83
2022-09-12T15:19:10.830Z,2.00
2022-09-12T15:21:39.021Z,2.35
2022-09-12T15:24:09.071Z,2.25
2022-09-12T15:26:37.106Z,1.90
2022-09-12T15:29:05.319Z,2.35
2022-09-12T15:31:34.747Z,1.45
2022-09-12T15:34:03.738Z,2.03
2022-09-12T15:36:31.799Z,1.90
2022-09-12T15:38:59.965Z,1.85
2022-09-12T15:41:32.420Z,1.98
2022-09-12T15:44:01.178Z,2.40
2022-09-12T15:46:29.363Z,1.98
2022-09-12T15:48:58.900Z,1.88
2022-09-12T15:51:26.997Z,2.25
2022-09-12T15:53:55.228Z,2.22
2022-09-12T15:56:24.027Z,2.17
2022-09-12T15:58:59.228Z,2.25
2022-09-12T16:01:29.158Z,2.10
2022-09-12T16:03:59.075Z,2.10
2022-09-12T16:06:27.820Z,2.22
2022-09-12T16:08:56.175Z,3.03
2022-09-12T16:11:26.194Z,2.10
2022-09-12T16:13:55.326Z,3.95
2022-09-12T16:16:23.505Z,2.60
2022-09-12T16:18:51.803Z,3.50
2022-09-12T16:21:21.518Z,2.72
2022-09-12T16:23:49.962Z,2.55
2022-09-12T16:26:18.245Z,2.55
2022-09-12T16:28:46.573Z,2.35
2022-09-12T16:31:15.311Z,1.90
2022-09-12T16:33:43.490Z,2.05
2022-09-12T16:36:13.011Z,2.83
2022-09-12T16:38:43.838Z,1.80
2022-09-12T16:41:12.017Z,2.30
2022-09-12T16:43:40.633Z,2.30
2022-09-12T16:46:10.990Z,1.70
2022-09-12T16:48:45.860Z,1.55
2022-09-12T16:51:17.702Z,1.20
2022-09-12T16:53:48.262Z,1.58
2022-09-12T16:56:16.899Z,1.70
2022-09-12T16:58:45.314Z,1.88
2022-09-12T17:01:15.001Z,1.52
2022-09-12T17:03:43.911Z,2.05
2022-09-12T17:06:14.011Z,1.77
2022-09-12T17:08:43.968Z,1.92
2022-09-12T17:11:15.362Z,1.70
2022-09-12T17:14:03.834Z,1.67
2022-09-12T17:16:33.780Z,1.95
2022-09-12T17:19:02.002Z,1.83
2022-09-12T17:21:30.104Z,1.58
2022-09-12T17:23:59.119Z,1.50
2022-09-12T17:26:28.601Z,1.60
2022-09-12T17:28:56.875Z,2.10
2022-09-12T17:31:24.880Z,2.67
2022-09-12T17:33:57.164Z,2.22
2022-09-12T17:36:26.550Z,2.40
2022-09-12T17:38:55.177Z,2.10
2022-09-12T17:41:25.477Z,2.00
2022-09-12T17:43:57.281Z,2.17
2022-09-12T17:46:28.530Z,2.58
2022-09-12T17:48:58.250Z,2.42
2022-09-12T17:51:30.649Z,3.10
2022-09-12T17:54:01.050Z,2.08
2022-09-12T17:56:31.149Z,1.85
2022-09-12T17:59:01.166Z,2.55
2022-09-12T18:01:48.202Z,2.88
2022-09-12T18:04:17.263Z,2.70
2022-09-12T18:06:48.089Z,2.42
2022-09-12T18:09:18.492Z,2.47
2022-09-12T18:11:47.996Z,3.15
2022-09-12T18:14:18.415Z,2.83
2022-09-12T18:16:47.344Z,3.33
2022-09-12T18:19:15.543Z,3.30
2022-09-12T18:21:43.946Z,3.40
2022-09-12T18:24:12.585Z,3.33
2022-09-12T18:26:40.864Z,3.17
2022-09-12T18:29:09.272Z,3.25
2022-09-12T18:31:38.751Z,3.53
2022-09-12T18:34:12.528Z,3.10
2022-09-12T18:36:44.623Z,3.00
2022-09-12T18:39:14.148Z,3.33
2022-09-12T18:41:42.152Z,3.30
2022-09-12T18:44:12.537Z,4.20
2022-09-12T18:46:42.015Z,4.10
2022-09-12T18:49:10.600Z,3.75
2022-09-12T18:51:41.600Z,3.65
2022-09-12T18:54:13.713Z,3.45
2022-09-12T18:56:43.838Z,3.75
2022-09-12T18:59:14.246Z,3.83
2022-09-12T19:01:44.046Z,4.35
2022-09-12T19:04:14.978Z,3.72
2022-09-12T19:06:45.040Z,3.55
2022-09-12T19:09:15.088Z,3.50
2022-09-12T19:11:48.766Z,3.13
2022-09-12T19:14:18.412Z,3.40
2022-09-12T19:16:48.138Z,3.58
2022-09-12T19:19:16.269Z,3.13
2022-09-12T19:21:44.457Z,3.78
2022-09-12T19:24:13.567Z,3.17
2022-09-12T19:26:43.014Z,3.78
2022-09-12T19:29:14.255Z,3.67
2022-09-12T19:31:42.713Z,3.03
2022-09-12T19:34:13.412Z,3.35
2022-09-12T19:36:45.452Z,3.40
2022-09-12T19:39:15.220Z,3.47
2022-09-12T19:41:43.714Z,3.00
2022-09-12T19:44:12.031Z,3.67
2022-09-12T19:46:40.366Z,3.70
2022-09-12T19:49:08.972Z,4.50
2022-09-12T19:51:38.836Z,5.00
2022-09-12T19:54:07.763Z,4.22
2022-09-12T19:56:35.919Z,3.88
2022-09-12T19:59:04.243Z,3.60
2022-09-12T20:01:33.077Z,4.70
2022-09-12T20:04:01.309Z,4.20
2022-09-12T20:06:29.399Z,3.50
2022-09-12T20:09:00.265Z,3.88
2022-09-12T20:11:28.476Z,4.00
2022-09-12T20:13:56.481Z,4.05
2022-09-12T20:16:28.367Z,3.55
2022-09-12T20:18:58.381Z,3.97
2022-09-12T20:21:31.432Z,3.80
2022-09-12T20:24:02.816Z,3.65
2022-09-12T20:26:31.306Z,3.58
2022-09-12T20:28:59.703Z,3.40
2022-09-12T20:31:28.032Z,3.88
2022-09-12T20:33:56.787Z,4.93
2022-09-12T20:36:25.059Z,4.30
2022-09-12T20:38:56.580Z,4.32
2022-09-12T20:41:27.542Z,4.65
2022-09-12T20:43:57.177Z,5.70
2022-09-12T20:46:27.334Z,4.50
2022-09-12T20:48:55.701Z,3.65
2022-09-12T20:51:24.567Z,3.95
2022-09-12T20:53:54.492Z,4.45
2022-09-12T20:56:23.256Z,4.43
2022-09-12T20:58:53.047Z,4.07
2022-09-12T21:01:22.491Z,4.47
2022-09-12T21:03:50.690Z,4.00
2022-09-12T21:06:19.863Z,4.05
2022-09-12T21:08:49.015Z,4.00
2022-09-12T21:11:17.983Z,4.07
2022-09-12T21:13:46.214Z,4.13
2022-09-12T21:16:19.127Z,4.22
2022-09-12T21:18:47.616Z,4.32
2022-09-12T21:21:16.865Z,4.07
2022-09-12T21:23:44.940Z,4.05
2022-09-12T21:26:13.049Z,4.82
2022-09-12T21:28:41.206Z,4.15
2022-09-12T21:31:09.714Z,4.93
2022-09-12T21:33:39.184Z,3.55
2022-09-12T21:36:09.615Z,4.15
2022-09-12T21:38:38.168Z,4.72
2022-09-12T21:41:08.336Z,5.03
2022-09-12T21:43:37.206Z,3.85
2022-09-12T21:46:07.022Z,4.03
2022-09-12T21:48:35.212Z,4.85
2022-09-12T21:51:05.195Z,4.60
2022-09-12T21:53:33.380Z,5.43
2022-09-12T21:56:03.611Z,4.75
2022-09-12T21:58:32.591Z,5.38
2022-09-12T22:01:01.313Z,4.65
2022-09-12T22:03:30.674Z,4.65
2022-09-12T22:05:59.881Z,4.90
2022-09-12T22:08:30.366Z,4.63
2022-09-12T22:11:00.869Z,4.47
2022-09-12T22:13:31.363Z,4.72
2022-09-12T22:16:00.566Z,4.05
2022-09-12T22:18:28.779Z,4.85
2022-09-12T22:21:01.514Z,4.15
2022-09-12T22:23:49.297Z,4.53
2022-09-12T22:26:17.950Z,5.10
2022-09-12T22:28:47.082Z,5.63
2022-09-12T22:31:16.110Z,5.30
2022-09-12T22:33:44.776Z,8.90
2022-09-12T22:36:13.500Z,6.97
2022-09-12T22:38:43.607Z,5.70
2022-09-12T22:41:13.150Z,13.80
2022-09-12T22:43:41.416Z,17.55
2022-09-12T22:46:12.100Z,19.33
2022-09-12T22:48:41.269Z,18.80
2022-09-12T22:51:10.032Z,7.70
2022-09-12T22:53:39.098Z,15.02
2022-09-12T22:56:10.045Z,7.80
2022-09-12T22:58:38.807Z,12.55
2022-09-12T23:01:07.835Z,6.63
2022-09-12T23:03:36.973Z,9.05
2022-09-12T23:06:05.551Z,8.45
2022-09-12T23:08:36.059Z,7.30
2022-09-12T23:11:06.029Z,11.98
2022-09-12T23:13:35.620Z,6.43
2022-09-12T23:16:06.488Z,4.80
2022-09-12T23:18:36.518Z,6.40
2022-09-12T23:21:06.611Z,10.63
2022-09-12T23:23:36.191Z,3.40
2022-09-12T23:26:06.318Z,4.40
2022-09-12T23:28:36.622Z,4.03
2022-09-12T23:31:05.074Z,5.28
2022-09-12T23:33:33.629Z,3.53
2022-09-12T23:36:02.373Z,3.28
2022-09-12T23:38:31.197Z,3.28
2022-09-12T23:41:00.044Z,3.40
2022-09-12T23:43:28.890Z,3.47
2022-09-12T23:45:59.076Z,3.40
2022-09-12T23:48:27.798Z,4.03
2022-09-12T23:50:56.183Z,3.25
2022-09-12T23:53:25.023Z,3.55
2022-09-12T23:55:54.138Z,3.53
2022-09-12T23:58:22.849Z,3.40
